Time;durP1;ratioP1;P1;durP2;ratioP2;P2;SDS_P1;SDS_P2;PMS_P1;PMS_P2;Temp;Humidity;BMP_temperature;BMP_pressure;BME280_temperature;BME280_humidity;BME280_pressure;Samples;Min_cycle;Max_cycle;Signal;HPM_P1;HPM_P2
2021/06/30 05:00:53;;;;;;;8.82;7.22;;;;;;;27.19;66.79;94763.47;5897024;23;20445;-76
2021/06/30 05:03:18;;;;;;;9.63;6.40;;;;;;;27.97;64.64;94762.47;4953652;28;20066;-76
2021/06/30 05:05:44;;;;;;;6.93;6.25;;;;;;;27.26;65.29;94767.69;4970625;28;20045;-76
2021/06/30 05:08:09;;;;;;;7.15;6.25;;;;;;;27.03;65.55;94770.00;4986819;28;20030;-77
2021/06/30 05:10:34;;;;;;;6.82;6.30;;;;;;;28.24;62.44;94757.38;4983394;28;20030;-76
2021/06/30 05:13:00;;;;;;;7.20;6.57;;;;;;;28.03;62.87;94764.00;4964414;28;20462;-76
2021/06/30 05:15:25;;;;;;;6.32;5.82;;;;;;;29.08;59.68;94747.69;4975156;28;20026;-77
2021/06/30 05:17:51;;;;;;;7.47;6.03;;;;;;;30.63;55.43;94769.94;4958478;28;20038;-77
2021/06/30 05:20:16;;;;;;;5.65;5.25;;;;;;;32.26;51.12;94756.84;4965202;28;20034;-76
2021/06/30 05:22:42;;;;;;;7.10;6.38;;;;;;;33.97;47.76;94774.88;4937933;28;20106;-77
2021/06/30 05:25:08;;;;;;;6.07;5.45;;;;;;;32.88;48.75;94778.91;4969367;28;20030;-76
2021/06/30 05:27:33;;;;;;;5.75;5.35;;;;;;;31.76;50.78;94773.19;4970338;28;20053;-77
2021/06/30 05:29:59;;;;;;;5.72;5.32;;;;;;;32.88;48.05;94774.34;4952983;28;20499;-76
2021/06/30 05:32:24;;;;;;;6.85;6.10;;;;;;;32.67;51.01;94767.22;4986219;28;20038;-76
2021/06/30 05:34:50;;;;;;;6.25;5.65;;;;;;;33.69;47.31;94761.03;4968377;28;20026;-77
2021/06/30 05:37:16;;;;;;;6.18;5.57;;;;;;;34.12;46.43;94776.25;4986138;28;20029;-77
2021/06/30 05:39:42;;;;;;;6.30;5.40;;;;;;;33.68;47.72;94764.06;4971262;28;20100;-75
2021/06/30 05:42:07;;;;;;;6.13;5.63;;;;;;;33.03;48.32;94764.25;4974959;28;20491;-76
2021/06/30 05:44:33;;;;;;;5.47;4.97;;;;;;;32.62;50.50;94762.00;4983989;28;20488;-76
2021/06/30 05:46:58;;;;;;;4.85;4.55;;;;;;;34.74;44.61;94773.75;5006358;28;20101;-76
2021/06/30 05:49:24;;;;;;;5.63;5.03;;;;;;;33.63;46.66;94765.00;5006930;28;20022;-75
2021/06/30 05:51:50;;;;;;;5.55;4.85;;;;;;;34.05;47.43;94762.50;4961025;28;20074;-76
2021/06/30 05:54:15;;;;;;;5.65;4.65;;;;;;;33.06;49.72;94763.59;4981324;28;20096;-75
2021/06/30 05:56:41;;;;;;;5.95;4.63;;;;;;;33.25;48.62;94772.16;4986255;28;20059;-75
2021/06/30 05:59:06;;;;;;;9.00;4.82;;;;;;;35.03;45.29;94770.19;4986879;28;20058;-76
2021/06/30 06:01:32;;;;;;;5.15;4.78;;;;;;;33.49;47.33;94761.69;4987982;28;20061;-75
2021/06/30 06:03:57;;;;;;;6.50;4.78;;;;;;;36.17;42.93;94760.38;5005316;28;20084;-75
2021/06/30 06:06:23;;;;;;;5.95;4.78;;;;;;;35.22;43.65;94765.16;5005345;28;20030;-75
2021/06/30 06:08:48;;;;;;;5.68;5.18;;;;;;;32.01;49.98;94771.75;4971983;28;20034;-75
2021/06/30 06:11:14;;;;;;;5.22;4.43;;;;;;;33.66;46.85;94760.88;4999352;28;20803;-75
2021/06/30 06:13:40;;;;;;;6.60;4.50;;;;;;;35.70;43.63;94769.94;4993930;28;20029;-76
2021/06/30 06:16:09;;;;;;;4.65;4.22;;;;;;;34.38;44.91;94761.59;4973254;28;20407;-75
2021/06/30 06:18:35;;;;;;;5.45;4.72;;;;;;;34.62;45.59;94762.88;4970915;28;20061;-76
2021/06/30 06:21:01;;;;;;;6.43;5.05;;;;;;;35.32;44.85;94764.75;4989514;28;20030;-75
2021/06/30 06:23:27;;;;;;;4.90;4.50;;;;;;;36.07;43.69;94760.00;4988870;28;20380;-76
2021/06/30 06:25:52;;;;;;;5.20;4.70;;;;;;;35.47;43.07;94766.81;4964338;28;20056;-77
2021/06/30 06:28:18;;;;;;;5.13;4.60;;;;;;;36.24;42.20;94754.41;5004640;28;20467;-77
2021/06/30 06:30:44;;;;;;;4.78;4.47;;;;;;;35.87;42.73;94757.03;4975610;28;20113;-76
2021/06/30 06:33:09;;;;;;;4.70;4.30;;;;;;;35.21;43.20;94756.28;4986823;28;20034;-75
2021/06/30 06:35:35;;;;;;;4.97;4.65;;;;;;;36.31;41.49;94760.03;4981761;28;20502;-75
2021/06/30 06:38:01;;;;;;;5.40;5.00;;;;;;;36.28;42.15;94755.31;4996317;28;20104;-75
2021/06/30 06:40:26;;;;;;;5.53;4.70;;;;;;;34.94;42.28;94757.56;4989077;28;20428;-77
2021/06/30 06:42:53;;;;;;;5.28;4.85;;;;;;;32.61;49.24;94753.16;4987936;28;20109;-76
2021/06/30 06:45:18;;;;;;;8.20;5.03;;;;;;;31.43;52.92;94755.00;4980703;28;20038;-74
2021/06/30 06:47:44;;;;;;;5.15;4.75;;;;;;;30.73;54.55;94745.66;5001126;28;20034;-76
2021/06/30 06:50:09;;;;;;;5.72;5.22;;;;;;;30.59;54.22;94750.25;4984502;28;20077;-75
2021/06/30 06:52:35;;;;;;;5.47;4.97;;;;;;;30.06;54.78;94746.50;4988312;28;20526;-75
2021/06/30 06:55:00;;;;;;;6.82;5.40;;;;;;;31.80;51.58;94739.31;4992010;28;20120;-76
2021/06/30 06:57:26;;;;;;;5.10;4.70;;;;;;;35.64;44.52;94726.22;4991744;28;20583;-76
2021/06/30 06:59:51;;;;;;;5.13;4.68;;;;;;;35.94;41.00;94719.50;4972461;28;20400;-77
2021/06/30 07:02:17;;;;;;;7.00;4.88;;;;;;;35.29;43.29;94720.34;4986168;28;20053;-78
2021/06/30 07:04:42;;;;;;;5.90;5.40;;;;;;;35.65;41.88;94730.47;5007358;28;20038;-77
2021/06/30 07:07:08;;;;;;;5.97;5.38;;;;;;;34.90;43.60;94718.94;4991393;28;20223;-77
2021/06/30 07:09:33;;;;;;;4.85;4.50;;;;;;;35.26;42.88;94723.72;4990388;28;20108;-76
2021/06/30 07:11:59;;;;;;;5.35;4.78;;;;;;;32.23;48.51;94719.94;5008280;28;20034;-75
2021/06/30 07:14:24;;;;;;;5.15;4.70;;;;;;;30.77;53.33;94716.41;5007810;28;20395;-76
2021/06/30 07:16:50;;;;;;;6.82;5.07;;;;;;;30.90;53.44;94717.44;4982236;28;20084;-77
2021/06/30 07:19:15;;;;;;;5.88;5.30;;;;;;;30.85;53.39;94715.69;4997318;28;20023;-78
2021/06/30 07:21:41;;;;;;;5.38;4.97;;;;;;;31.75;51.03;94712.66;4998020;28;20032;-77
2021/06/30 07:24:07;;;;;;;5.47;5.07;;;;;;;30.18;55.51;94722.78;4994859;28;20023;-78
2021/06/30 07:26:32;;;;;;;5.40;4.90;;;;;;;30.47;55.87;94709.06;4971276;28;20105;-77
2021/06/30 07:28:58;;;;;;;5.35;4.88;;;;;;;31.25;56.73;94713.94;4998845;28;20388;-78
2021/06/30 07:31:23;;;;;;;5.05;4.55;;;;;;;31.63;55.07;94703.59;4973382;28;20026;-79
2021/06/30 07:33:49;;;;;;;6.15;5.65;;;;;;;30.87;52.99;94718.84;4979103;28;20030;-77
2021/06/30 07:36:16;;;;;;;5.95;5.45;;;;;;;32.04;52.78;94706.00;4998176;28;20403;-78
2021/06/30 07:38:42;;;;;;;6.45;4.93;;;;;;;30.95;54.85;94712.81;4986204;28;20037;-77
2021/06/30 07:41:08;;;;;;;5.90;5.40;;;;;;;30.67;55.09;94705.94;4989820;28;20030;-79
2021/06/30 07:43:33;;;;;;;6.07;5.57;;;;;;;29.51;57.75;94710.97;4969563;28;20041;-77
2021/06/30 07:45:59;;;;;;;6.20;5.78;;;;;;;31.01;54.72;94710.78;5005297;28;20034;-78
2021/06/30 07:48:25;;;;;;;8.18;5.07;;;;;;;31.30;54.97;94703.09;5005911;28;20049;-78
2021/06/30 07:50:50;;;;;;;6.00;5.60;;;;;;;31.13;55.02;94703.78;4986038;28;20026;-77
2021/06/30 07:53:16;;;;;;;5.90;5.40;;;;;;;30.56;57.84;94689.34;4977459;28;20030;-78
2021/06/30 07:55:41;;;;;;;6.85;5.70;;;;;;;31.14;54.05;94683.16;4986045;28;20034;-77
2021/06/30 07:58:07;;;;;;;5.72;5.22;;;;;;;31.18;55.91;94684.91;4998135;28;20021;-78
2021/06/30 08:00:32;;;;;;;7.00;5.70;;;;;;;30.06;56.94;94687.72;4969284;28;20519;-77
2021/06/30 08:02:58;;;;;;;10.85;5.68;;;;;;;31.56;55.48;94690.69;4996715;28;20057;-77
2021/06/30 08:05:23;;;;;;;6.88;6.05;;;;;;;30.84;55.50;94695.38;5005362;28;20034;-78
2021/06/30 08:07:49;;;;;;;6.50;5.90;;;;;;;30.42;59.14;94695.81;4989080;28;20120;-76
2021/06/30 08:10:14;;;;;;;6.75;6.10;;;;;;;31.70;56.19;94685.97;4986167;28;20022;-78
2021/06/30 08:12:40;;;;;;;6.85;6.05;;;;;;;29.60;59.54;94687.81;4977852;28;20543;-75
2021/06/30 08:15:06;;;;;;;10.45;5.95;;;;;;;30.57;58.75;94688.22;4989994;28;20113;-78
2021/06/30 08:17:31;;;;;;;7.40;6.72;;;;;;;30.95;57.30;94674.50;4985186;28;20026;-81
2021/06/30 08:19:57;;;;;;;6.50;5.80;;;;;;;32.08;54.71;94677.44;4988280;28;20491;-78
2021/06/30 08:22:23;;;;;;;6.70;6.18;;;;;;;31.23;58.00;94666.06;4968833;28;20034;-79
2021/06/30 08:24:48;;;;;;;13.05;6.18;;;;;;;30.87;59.49;94683.25;4995149;28;20033;-77
2021/06/30 08:27:14;;;;;;;6.78;5.82;;;;;;;31.17;62.32;94672.63;4985394;28;20022;-79
2021/06/30 08:29:43;;;;;;;7.55;6.93;;;;;;;30.73;59.38;94678.75;4982763;28;20112;-78
2021/06/30 08:32:08;;;;;;;7.03;6.32;;;;;;;30.49;59.45;94680.13;4969641;28;20049;-77
2021/06/30 08:34:34;;;;;;;8.48;5.85;;;;;;;31.22;59.30;94661.78;4973076;28;20444;-77
2021/06/30 08:37:08;;;;;;;6.78;5.80;;;;;;;31.06;58.00;94681.22;4985573;28;20498;-80
2021/06/30 08:39:34;;;;;;;6.78;6.25;;;;;;;31.26;58.05;94675.34;4984887;28;20022;-78
2021/06/30 08:41:59;;;;;;;6.75;6.25;;;;;;;31.60;57.29;94678.22;4987911;28;20026;-76
2021/06/30 08:44:25;;;;;;;7.82;6.72;;;;;;;31.53;58.32;94674.41;5006701;28;20080;-77
2021/06/30 08:46:51;;;;;;;6.45;5.85;;;;;;;31.65;60.05;94661.22;4988425;28;20052;-76
2021/06/30 08:49:18;;;;;;;6.38;5.72;;;;;;;30.84;57.31;94642.66;4988264;28;20426;-79
2021/06/30 08:51:44;;;;;;;7.75;6.07;;;;;;;31.09;57.47;94670.69;5004087;28;20119;-79
2021/06/30 08:54:11;;;;;;;6.38;5.88;;;;;;;31.03;58.49;94653.19;4988676;28;20037;-76
2021/06/30 08:56:36;;;;;;;6.55;5.85;;;;;;;31.38;58.33;94643.44;4968503;28;20507;-78
2021/06/30 08:59:02;;;;;;;7.28;6.28;;;;;;;32.15;56.30;94643.72;4961056;28;20030;-78
2021/06/30 09:01:29;;;;;;;9.07;5.78;;;;;;;32.35;54.65;94653.84;4987006;28;20072;-77
2021/06/30 09:03:56;;;;;;;6.35;5.75;;;;;;;31.67;58.56;94646.41;5004917;28;20033;-78
2021/06/30 09:06:25;;;;;;;7.60;6.85;;;;;;;31.86;59.22;94638.91;4987538;28;20503;-82
2021/06/30 09:08:50;;;;;;;7.03;6.25;;;;;;;32.01;56.08;94647.63;4987261;28;20061;-77
2021/06/30 09:11:20;;;;;;;7.10;6.45;;;;;;;31.80;56.72;94639.34;5005124;28;20061;-81
2021/06/30 09:13:50;;;;;;;8.68;6.28;;;;;;;31.53;56.21;94629.66;4980351;28;20084;-78
2021/06/30 09:16:16;;;;;;;6.40;5.93;;;;;;;32.11;56.81;94652.72;4988450;28;20034;-81
2021/06/30 09:18:42;;;;;;;6.70;6.18;;;;;;;32.10;56.64;94649.25;4967491;28;20049;-80
2021/06/30 09:21:27;;;;;;;6.38;5.88;;;;;;;31.15;58.01;94631.19;4967100;28;20066;-78
2021/06/30 09:24:05;;;;;;;7.80;6.03;;;;;;;31.70;58.34;94640.44;4983727;28;20411;-76
2021/06/30 09:26:50;;;;;;;7.63;6.35;;;;;;;31.88;56.43;94639.38;5004219;28;20038;-77
2021/06/30 09:29:16;;;;;;;6.97;6.35;;;;;;;31.44;57.16;94631.47;4990238;28;20042;-78
2021/06/30 09:31:43;;;;;;;7.00;6.43;;;;;;;31.40;58.79;94627.84;4985816;28;20099;-81
2021/06/30 09:34:09;;;;;;;6.78;6.28;;;;;;;31.63;54.29;94615.97;4968002;28;20104;-82
2021/06/30 09:37:00;;;;;;;7.07;6.47;;;;;;;32.68;55.22;94623.88;4974888;28;20033;-85
2021/06/30 09:39:26;;;;;;;7.10;6.40;;;;;;;32.38;54.67;94621.03;4973258;28;20042;-80
2021/06/30 09:42:11;;;;;;;9.57;7.53;;;;;;;31.46;55.21;94620.47;4986193;28;20365;-79
2021/06/30 09:44:38;;;;;;;12.63;6.82;;;;;;;31.67;57.51;94616.16;4966843;28;20015;-80
2021/06/30 09:47:04;;;;;;;10.65;6.93;;;;;;;31.72;57.28;94594.59;4978317;28;20041;-80
2021/06/30 09:49:30;;;;;;;7.85;6.47;;;;;;;32.02;53.22;94611.63;4987073;28;20463;-80
2021/06/30 09:52:10;;;;;;;16.35;7.45;;;;;;;31.45;53.51;94610.84;4985145;28;20026;-76
2021/06/30 09:54:36;;;;;;;11.35;7.03;;;;;;;30.77;55.82;94625.44;4987225;28;20124;-76
2021/06/30 09:57:03;;;;;;;9.93;7.32;;;;;;;31.80;53.22;94613.34;5001845;28;20061;-80
2021/06/30 09:59:35;;;;;;;12.32;7.07;;;;;;;32.12;54.15;94609.47;5002906;28;20052;-78
2021/06/30 10:02:07;;;;;;;12.43;6.97;;;;;;;31.63;52.17;94613.28;4984752;28;20050;-78
2021/06/30 10:04:43;;;;;;;14.02;7.57;;;;;;;31.62;52.68;94609.06;4976307;28;20022;-76
2021/06/30 10:07:12;;;;;;;7.90;6.55;;;;;;;31.77;52.03;94605.94;4995689;28;20030;-76
2021/06/30 10:09:50;;;;;;;8.88;7.00;;;;;;;31.79;50.13;94608.28;4984813;28;20487;-76
2021/06/30 10:12:17;;;;;;;13.25;6.95;;;;;;;32.06;50.17;94601.91;5002090;28;20530;-80
2021/06/30 10:14:43;;;;;;;12.15;7.22;;;;;;;31.77;51.19;94611.28;5001528;28;20120;-80
2021/06/30 10:17:10;;;;;;;10.85;7.50;;;;;;;31.44;49.99;94604.69;4983581;28;20643;-81
2021/06/30 10:19:36;;;;;;;9.95;6.15;;;;;;;31.69;52.07;94598.66;4995526;28;20109;-79
2021/06/30 10:22:03;;;;;;;9.82;6.10;;;;;;;32.48;48.92;94595.78;4988280;28;20049;-82
2021/06/30 10:24:28;;;;;;;11.32;6.72;;;;;;;32.04;49.76;94588.03;4972358;28;20028;-81
2021/06/30 10:26:54;;;;;;;11.88;6.60;;;;;;;32.22;48.21;94590.41;4968507;28;20415;-79
2021/06/30 10:29:24;;;;;;;10.18;7.00;;;;;;;31.75;46.40;94593.97;5002281;28;20030;-79
2021/06/30 10:31:49;;;;;;;8.98;6.15;;;;;;;31.96;46.08;94580.72;5000926;28;20125;-77
2021/06/30 10:34:15;;;;;;;14.93;6.43;;;;;;;31.98;45.09;94582.00;4965375;28;20026;-77
2021/06/30 10:36:56;;;;;;;12.15;5.80;;;;;;;32.35;47.67;94567.22;4973595;28;20461;-82
2021/06/30 10:39:40;;;;;;;12.98;6.45;;;;;;;32.22;49.55;94578.88;4984559;28;20029;-78
2021/06/30 10:42:32;;;;;;;12.70;6.35;;;;;;;32.27;49.33;94576.06;5002620;28;20681;-85
2021/06/30 10:44:59;;;;;;;9.27;6.28;;;;;;;32.74;46.35;94568.94;4966372;28;20026;-81
2021/06/30 10:47:28;;;;;;;16.50;7.40;;;;;;;31.89;48.72;94570.47;4979164;28;20516;-75
2021/06/30 10:50:19;;;;;;;9.00;6.20;;;;;;;31.85;48.29;94570.31;5002648;28;20033;-77
2021/06/30 10:52:46;;;;;;;16.80;6.60;;;;;;;31.87;47.82;94564.66;5002306;28;20034;-76
2021/06/30 10:55:30;;;;;;;13.70;6.70;;;;;;;31.91;47.37;94556.78;4985404;28;20068;-74
2021/06/30 10:58:14;;;;;;;9.30;6.03;;;;;;;32.75;47.68;94563.22;5002225;28;20034;-77
2021/06/30 11:01:02;;;;;;;14.10;7.15;;;;;;;32.06;48.79;94553.66;5002134;28;20022;-75
2021/06/30 11:03:43;;;;;;;12.73;6.47;;;;;;;32.69;47.00;94550.28;4992184;28;20038;-81
2021/06/30 11:06:17;;;;;;;16.30;7.45;;;;;;;32.12;46.64;94542.44;5001745;28;20093;-76
2021/06/30 11:08:52;;;;;;;14.07;6.93;;;;;;;32.28;47.21;94546.22;5003169;28;20038;-76
2021/06/30 11:11:27;;;;;;;15.60;5.95;;;;;;;32.32;48.49;94543.72;4993167;28;20034;-74
2021/06/30 11:14:12;;;;;;;13.77;6.05;;;;;;;32.33;46.20;94534.56;5007427;28;20529;-74
2021/06/30 11:16:41;;;;;;;11.30;5.60;;;;;;;32.72;46.64;94539.72;4997839;28;20447;-78
2021/06/30 11:19:07;;;;;;;8.90;6.20;;;;;;;32.49;44.08;94524.91;5013556;28;20033;-79
2021/06/30 11:22:11;;;;;;;9.57;5.72;;;;;;;32.53;45.24;94536.56;5004625;28;20018;-76
2021/06/30 11:24:41;;;;;;;9.98;5.60;;;;;;;33.21;45.05;94530.25;5001082;28;20038;-80
2021/06/30 11:27:41;;;;;;;14.40;6.13;;;;;;;33.19;46.17;94521.75;5013728;28;20014;-77
2021/06/30 11:30:03;;;;;;;10.52;5.80;;;;;;;32.71;46.25;94523.94;5012849;28;20407;-80
2021/06/30 11:35:12;;;;;;;8.52;5.65;;;;;;;32.67;47.89;94523.78;5005778;28;20065;-78
2021/06/30 11:37:39;;;;;;;11.18;5.70;;;;;;;33.36;48.92;94515.50;5006048;28;20065;-78
2021/06/30 11:40:12;;;;;;;8.73;6.13;;;;;;;32.57;47.33;94513.38;4970673;28;20041;-78
2021/06/30 11:42:40;;;;;;;9.63;5.45;;;;;;;32.60;48.25;94518.13;4970071;28;20035;-81
2021/06/30 11:45:21;;;;;;;11.50;5.72;;;;;;;32.59;47.82;94511.16;4960761;28;20073;-75
2021/06/30 11:47:50;;;;;;;15.40;7.00;;;;;;;32.72;48.22;94498.69;5004269;28;20041;-77
2021/06/30 11:50:18;;;;;;;7.57;5.97;;;;;;;32.57;47.39;94493.81;4997553;28;20553;-78
2021/06/30 11:52:44;;;;;;;7.22;6.25;;;;;;;32.45;47.74;94493.66;4978960;28;20084;-76
2021/06/30 11:55:10;;;;;;;11.90;5.70;;;;;;;33.02;47.34;94486.88;5004781;28;20037;-76
2021/06/30 11:57:56;;;;;;;12.35;6.32;;;;;;;32.95;48.98;94480.41;4986891;28;20096;-76
2021/06/30 12:00:23;;;;;;;10.38;5.78;;;;;;;32.92;49.03;94465.75;5004027;28;20538;-78
2021/06/30 12:02:53;;;;;;;9.32;6.72;;;;;;;32.54;49.51;94484.50;4987283;28;20471;-75
2021/06/30 12:05:19;;;;;;;8.40;6.25;;;;;;;32.93;49.96;94475.38;4969600;28;20045;-77
2021/06/30 12:07:46;;;;;;;10.57;7.22;;;;;;;33.00;48.98;94459.56;4986483;28;20038;-76
2021/06/30 12:10:11;;;;;;;14.68;7.10;;;;;;;32.85;48.48;94474.31;4967733;28;20431;-76
2021/06/30 12:12:37;;;;;;;10.60;6.18;;;;;;;32.69;47.27;94473.25;4956204;28;20539;-74
2021/06/30 12:15:04;;;;;;;7.95;5.57;;;;;;;32.99;46.07;94471.41;4995739;28;20038;-78
2021/06/30 12:17:30;;;;;;;10.95;6.40;;;;;;;33.39;46.15;94469.19;4967879;28;20030;-79
2021/06/30 12:19:55;;;;;;;10.38;5.20;;;;;;;33.40;48.36;94463.47;4984442;28;20030;-77
2021/06/30 12:22:24;;;;;;;10.02;6.13;;;;;;;32.85;46.69;94463.56;4982533;28;20025;-76
2021/06/30 12:24:54;;;;;;;12.45;4.95;;;;;;;32.82;46.17;94456.16;4992721;28;20388;-71
2021/06/30 12:27:19;;;;;;;13.32;6.40;;;;;;;32.76;45.96;94460.13;5003093;28;20065;-75
2021/06/30 12:29:56;;;;;;;11.02;5.63;;;;;;;32.83;45.99;94457.75;4987654;28;20026;-80
2021/06/30 12:32:21;;;;;;;13.00;6.40;;;;;;;32.93;47.70;94453.91;4967829;28;20423;-75
2021/06/30 12:34:47;;;;;;;14.75;6.43;;;;;;;33.28;49.21;94454.53;4978772;28;20038;-75
2021/06/30 12:37:22;;;;;;;10.43;6.57;;;;;;;33.22;49.91;94445.88;4984951;28;20026;-75
2021/06/30 12:40:03;;;;;;;11.13;6.40;;;;;;;32.63;49.25;94436.97;4999158;28;20355;-71
2021/06/30 12:42:44;;;;;;;13.85;7.25;;;;;;;33.31;50.05;94453.88;5002652;28;20656;-74
2021/06/30 12:45:11;;;;;;;8.98;7.28;;;;;;;33.07;49.94;94433.00;4995311;28;20716;-76
2021/06/30 12:47:48;;;;;;;15.15;7.57;;;;;;;32.37;48.10;94442.41;4983393;28;20026;-76
2021/06/30 12:50:14;;;;;;;11.73;6.45;;;;;;;32.62;48.93;94427.38;4987596;28;20860;-80
2021/06/30 12:52:39;;;;;;;10.00;6.90;;;;;;;32.49;48.84;94422.97;4970041;28;20041;-77
2021/06/30 12:55:14;;;;;;;14.82;7.35;;;;;;;32.40;49.20;94434.84;4986442;28;20041;-77
2021/06/30 12:58:03;;;;;;;9.93;6.07;;;;;;;32.86;48.07;94440.97;4985757;28;20034;-84
2021/06/30 13:00:31;;;;;;;9.32;5.90;;;;;;;32.78;50.23;94436.44;5002273;28;20030;-81
2021/06/30 13:03:16;;;;;;;12.20;7.13;;;;;;;33.07;48.82;94432.22;4979863;28;20647;-78
2021/06/30 13:05:43;;;;;;;10.30;6.80;;;;;;;32.76;50.14;94435.97;4996866;28;20610;-79
2021/06/30 13:09:02;;;;;;;14.65;6.75;;;;;;;32.95;49.05;94429.41;4998468;28;20033;-78
2021/06/30 13:11:28;;;;;;;8.88;6.40;;;;;;;32.60;49.99;94434.94;4942104;29;20027;-74
2021/06/30 13:14:03;;;;;;;19.85;6.68;;;;;;;32.47;50.93;94429.75;4927087;29;20035;-76
2021/06/30 13:16:30;;;;;;;13.65;8.02;;;;;;;32.52;49.75;94419.63;4983274;28;20030;-75
2021/06/30 13:18:57;;;;;;;20.23;7.63;;;;;;;32.02;48.81;94424.78;4985922;28;20038;-69
2021/06/30 13:21:23;;;;;;;8.27;6.05;;;;;;;32.56;50.13;94423.22;4986250;28;20533;-77
2021/06/30 13:26:27;;;;;;;11.30;6.28;;;;;;;32.08;50.42;94417.38;4986507;28;20033;-78
2021/06/30 13:34:20;;;;;;;11.65;8.48;;;;;;;32.08;50.58;94410.13;4988934;28;20079;-74
2021/06/30 13:36:46;;;;;;;19.15;8.52;;;;;;;32.18;51.30;94414.34;5001451;28;20092;-74
2021/06/30 13:39:11;;;;;;;9.30;6.60;;;;;;;32.31;50.88;94421.44;4986381;28;20029;-77
2021/06/30 13:41:38;;;;;;;8.40;7.35;;;;;;;32.23;51.18;94415.00;5001415;28;20064;-75
2021/06/30 13:44:03;;;;;;;8.18;5.80;;;;;;;32.52;51.70;94414.28;4969612;28;20033;-77
2021/06/30 13:46:29;;;;;;;11.00;6.18;;;;;;;32.59;52.81;94425.31;5001563;28;20022;-76
2021/06/30 13:48:56;;;;;;;11.35;6.15;;;;;;;32.48;52.92;94415.22;5001900;28;20026;-77
2021/06/30 13:51:22;;;;;;;9.07;6.55;;;;;;;32.75;53.46;94430.94;4986149;28;20029;-75
2021/06/30 13:53:48;;;;;;;15.82;7.53;;;;;;;31.95;50.34;94423.69;4968823;28;20026;-75
2021/06/30 13:56:14;;;;;;;14.30;6.82;;;;;;;32.12;51.52;94423.69;4985778;28;20108;-75
2021/06/30 13:58:41;;;;;;;21.25;8.63;;;;;;;31.88;52.97;94432.22;5001135;28;20037;-75
2021/06/30 14:01:06;;;;;;;13.13;6.80;;;;;;;31.80;52.31;94436.47;4982322;28;20057;-73
2021/06/30 14:03:32;;;;;;;9.45;7.00;;;;;;;31.84;52.61;94440.09;4997734;28;20025;-75
2021/06/30 14:05:57;;;;;;;12.27;8.60;;;;;;;31.60;51.62;94437.09;4985718;28;20029;-74
2021/06/30 14:08:23;;;;;;;11.80;6.85;;;;;;;31.78;51.95;94436.00;5001654;28;20029;-75
2021/06/30 14:10:58;;;;;;;8.75;7.13;;;;;;;31.85;53.97;94438.97;4984821;28;20487;-75
2021/06/30 14:13:24;;;;;;;14.88;7.82;;;;;;;31.36;53.76;94439.44;5002175;28;20451;-72
2021/06/30 14:15:49;;;;;;;11.10;6.68;;;;;;;31.72;53.88;94442.59;5001109;28;20029;-73
2021/06/30 14:18:15;;;;;;;13.52;7.70;;;;;;;31.62;55.00;94440.28;4986076;28;20471;-74
2021/06/30 14:20:41;;;;;;;10.25;7.40;;;;;;;31.52;52.49;94432.53;4997359;28;20419;-74
2021/06/30 14:23:08;;;;;;;10.27;7.47;;;;;;;31.42;52.54;94440.06;4996227;28;20018;-74
2021/06/30 14:25:34;;;;;;;14.73;7.55;;;;;;;31.13;52.69;94437.97;4975319;28;20365;-73
2021/06/30 14:27:59;;;;;;;12.93;7.75;;;;;;;31.21;53.45;94435.28;4983519;28;20061;-74
2021/06/30 14:30:25;;;;;;;12.98;9.23;;;;;;;30.94;54.01;94434.75;5003095;28;20022;-72
2021/06/30 14:32:51;;;;;;;17.80;9.07;;;;;;;30.94;55.33;94421.34;4965050;28;20038;-72
2021/06/30 14:35:16;;;;;;;16.00;7.65;;;;;;;30.95;55.77;94418.41;4978933;28;20092;-73
2021/06/30 14:37:42;;;;;;;10.52;7.30;;;;;;;30.86;56.31;94419.47;4982850;28;20046;-76
2021/06/30 14:42:43;;;;;;;15.18;9.18;;;;;;;30.90;55.14;94415.84;5015098;23;20066;-74
2021/06/30 14:45:09;;;;;;;11.32;8.13;;;;;;;31.12;55.64;94423.00;4946688;28;20582;-74
2021/06/30 14:47:35;;;;;;;8.57;7.60;;;;;;;30.91;54.42;94411.28;4969510;28;20026;-74
2021/06/30 14:50:00;;;;;;;16.92;9.02;;;;;;;30.98;54.57;94414.31;4970586;28;20146;-74
2021/06/30 14:52:26;;;;;;;12.00;8.80;;;;;;;30.87;54.80;94399.63;4987049;28;20562;-70
2021/06/30 14:54:52;;;;;;;11.02;8.95;;;;;;;30.59;56.12;94402.53;4972761;28;20030;-73
2021/06/30 14:57:18;;;;;;;10.02;7.47;;;;;;;30.36;54.63;94405.53;4986846;28;20120;-73
2021/06/30 14:59:44;;;;;;;12.75;8.05;;;;;;;30.05;54.73;94406.34;4972139;28;20121;-73
2021/06/30 15:02:10;;;;;;;11.02;8.18;;;;;;;29.92;53.24;94403.75;4953480;28;20038;-73
2021/06/30 15:04:36;;;;;;;14.45;7.95;;;;;;;29.90;53.30;94393.34;4988251;28;20061;-73
2021/06/30 15:07:01;;;;;;;10.73;6.93;;;;;;;29.86;55.51;94405.75;4987105;28;20034;-74
2021/06/30 15:09:26;;;;;;;15.35;8.70;;;;;;;29.64;55.82;94379.00;4986636;28;20035;-72
2021/06/30 15:11:53;;;;;;;15.10;8.60;;;;;;;29.61;57.12;94385.72;4954785;28;20022;-73
2021/06/30 15:14:18;;;;;;;9.55;8.57;;;;;;;29.62;56.93;94376.63;4986540;28;20632;-72
2021/06/30 15:16:44;;;;;;;14.27;9.48;;;;;;;29.63;55.85;94375.56;4971705;28;20089;-74
2021/06/30 15:19:09;;;;;;;16.10;9.77;;;;;;;29.75;56.84;94375.78;4986290;28;20385;-73
2021/06/30 15:21:38;;;;;;;14.00;9.15;;;;;;;29.81;56.88;94368.44;4988517;28;20889;-73
2021/06/30 15:24:06;;;;;;;10.95;8.80;;;;;;;29.87;57.06;94380.59;4986331;28;20077;-73
2021/06/30 15:26:35;;;;;;;15.40;9.13;;;;;;;30.03;55.73;94372.97;4966765;28;20037;-73
2021/06/30 15:29:00;;;;;;;;;;;;;;;29.95;56.13;94363.84;4968770;28;20031;-75
2021/06/30 15:31:28;;;;;;;21.85;9.25;;;;;;;30.01;56.33;94375.19;4979700;28;20351;-73
2021/06/30 15:33:59;;;;;;;13.63;9.40;;;;;;;30.20;56.68;94365.06;4971789;28;20407;-73
2021/06/30 15:36:25;;;;;;;12.35;8.55;;;;;;;30.20;56.28;94352.47;4987504;28;20030;-73
2021/06/30 15:38:50;;;;;;;20.80;9.15;;;;;;;30.17;56.10;94357.66;4971410;28;20034;-75
2021/06/30 15:41:15;;;;;;;16.75;9.45;;;;;;;29.94;56.45;94346.22;4968824;28;20511;-73
2021/06/30 15:43:41;;;;;;;15.90;10.73;;;;;;;29.83;57.53;94352.91;4987420;28;20237;-72
2021/06/30 15:46:06;;;;;;;11.25;9.35;;;;;;;29.96;56.86;94352.03;4986893;28;20106;-73
2021/06/30 15:48:32;;;;;;;14.43;8.98;;;;;;;29.74;57.05;94342.16;4954373;28;20010;-72
2021/06/30 15:50:58;;;;;;;21.20;9.27;;;;;;;29.81;57.94;94355.06;4970303;28;20483;-72
2021/06/30 15:53:23;;;;;;;13.15;9.10;;;;;;;29.72;56.05;94343.56;4987086;28;20034;-71
2021/06/30 15:55:48;;;;;;;18.55;9.90;;;;;;;29.68;56.75;94347.91;4987724;28;20027;-73
2021/06/30 15:58:14;;;;;;;13.98;10.32;;;;;;;29.57;56.05;94336.69;4968973;28;20026;-72
2021/06/30 16:00:39;;;;;;;13.55;10.23;;;;;;;29.56;56.72;94345.03;4986273;28;20076;-74
2021/06/30 16:03:05;;;;;;;15.77;9.95;;;;;;;29.53;57.49;94354.44;4952972;28;20069;-73
2021/06/30 16:05:31;;;;;;;16.45;10.48;;;;;;;29.49;57.19;94350.00;4986159;28;20407;-72
2021/06/30 16:07:57;;;;;;;15.93;11.20;;;;;;;29.44;58.31;94355.47;4983226;28;20022;-72
2021/06/30 16:10:23;;;;;;;17.40;11.13;;;;;;;29.32;58.59;94349.84;4983754;28;20053;-72
2021/06/30 16:12:48;;;;;;;13.57;10.73;;;;;;;29.26;58.25;94344.66;4987007;28;20030;-72
2021/06/30 16:15:18;;;;;;;14.15;11.27;;;;;;;29.27;58.42;94350.78;4968657;28;20489;-71
2021/06/30 16:17:44;;;;;;;11.85;10.63;;;;;;;29.14;58.91;94357.72;4955671;28;20030;-73
2021/06/30 16:20:14;;;;;;;13.50;10.95;;;;;;;29.17;58.44;94367.78;4985712;28;20053;-71
2021/06/30 16:22:40;;;;;;;15.05;10.60;;;;;;;29.06;58.90;94371.75;4970390;28;20099;-72
2021/06/30 16:25:06;;;;;;;18.70;11.38;;;;;;;29.09;59.01;94368.47;4969465;28;20040;-72
2021/06/30 16:27:32;;;;;;;20.83;11.50;;;;;;;29.01;60.01;94371.88;4967074;28;20649;-74
2021/06/30 16:29:57;;;;;;;11.70;9.88;;;;;;;28.96;60.23;94374.63;4984760;28;20106;-73
2021/06/30 16:32:23;;;;;;;24.55;11.32;;;;;;;28.89;60.79;94360.13;4965561;28;20420;-73
2021/06/30 16:34:48;;;;;;;13.07;10.57;;;;;;;28.82;61.08;94367.75;4986087;28;20026;-72
2021/06/30 16:37:14;;;;;;;15.68;12.88;;;;;;;28.84;60.04;94368.22;4984727;28;20038;-72
2021/06/30 16:39:39;;;;;;;14.63;11.25;;;;;;;28.75;61.67;94373.50;4985876;28;20484;-73
2021/06/30 16:42:05;;;;;;;14.65;11.75;;;;;;;28.64;61.75;94367.53;4984373;28;20451;-73
2021/06/30 16:44:31;;;;;;;15.65;12.40;;;;;;;28.62;61.90;94385.72;4979007;28;20723;-75
2021/06/30 16:46:56;;;;;;;17.05;10.77;;;;;;;28.59;61.81;94386.31;4992658;28;20518;-73